createdAt,value
2023-04-05T00:05:07.850Z,1.67
2023-04-05T00:10:35.871Z,1.90
2023-04-05T00:16:08.027Z,2.15
2023-04-05T00:21:35.500Z,2.00
2023-04-05T00:27:01.879Z,2.08
2023-04-05T00:32:32.859Z,1.90
2023-04-05T00:37:57.853Z,1.90
2023-04-05T00:43:26.249Z,2.13
2023-04-05T00:48:56.826Z,1.75
2023-04-05T00:54:23.872Z,2.00
2023-04-05T00:59:48.808Z,1.90
2023-04-05T01:05:22.771Z,2.10
2023-04-05T01:10:58.783Z,2.40
2023-04-05T01:22:23.734Z,2.28
2023-04-05T01:28:10.770Z,2.13
2023-04-05T01:33:46.869Z,2.20
2023-04-05T01:39:14.762Z,1.90
2023-04-05T01:44:39.734Z,1.90
2023-04-05T01:50:08.014Z,2.10
2023-04-05T01:55:40.791Z,2.13
2023-04-05T02:01:06.894Z,2.20
2023-04-05T02:06:33.852Z,2.15
2023-04-05T02:12:08.932Z,2.20
2023-04-05T02:17:40.839Z,2.28
2023-04-05T02:23:08.885Z,1.98
2023-04-05T02:28:35.833Z,2.00
2023-04-05T02:34:04.833Z,2.30
2023-04-05T02:39:35.879Z,2.08
2023-04-05T02:50:33.838Z,2.15
2023-04-05T02:56:12.898Z,2.58
2023-04-05T03:01:43.127Z,2.33
2023-04-05T03:07:17.896Z,2.22
2023-04-05T03:12:45.814Z,2.35
2023-04-05T03:18:14.985Z,2.50
2023-04-05T03:23:43.864Z,2.08
2023-04-05T03:29:23.867Z,2.13
2023-04-05T03:34:53.841Z,2.60
2023-04-05T03:40:19.923Z,2.20
2023-04-05T03:45:47.850Z,2.47
2023-04-05T03:51:14.826Z,2.22
2023-04-05T03:56:48.832Z,2.45
2023-04-05T04:07:39.835Z,2.30
2023-04-05T04:13:12.028Z,2.60
2023-04-05T04:18:42.955Z,2.70
2023-04-05T04:24:33.873Z,2.60
2023-04-05T04:30:19.850Z,2.60
2023-04-05T04:36:01.933Z,2.30
2023-04-05T04:41:44.809Z,2.40
2023-04-05T04:47:30.813Z,2.67
2023-04-05T04:53:08.847Z,2.80
2023-04-05T04:58:33.813Z,2.60
2023-04-05T05:04:00.788Z,2.63
2023-04-05T05:09:30.798Z,2.80
2023-04-05T05:14:55.853Z,2.70
2023-04-05T05:20:21.856Z,2.55
2023-04-05T05:25:48.821Z,2.58
2023-04-05T05:31:14.872Z,2.42
2023-04-05T05:36:38.842Z,2.40
2023-04-05T05:42:08.814Z,2.45
2023-04-05T05:47:32.930Z,2.30
2023-04-05T05:52:59.171Z,2.40
2023-04-05T05:58:28.804Z,2.13
2023-04-05T06:03:53.885Z,2.00
2023-04-05T06:09:11.872Z,2.10
2023-04-05T06:14:38.855Z,2.10
2023-04-05T06:20:03.831Z,2.20
2023-04-05T06:25:27.835Z,2.40
2023-04-05T06:30:55.974Z,2.60
2023-04-05T06:36:21.134Z,2.50
2023-04-05T06:41:51.836Z,2.28
2023-04-05T06:47:22.860Z,2.25
2023-04-05T06:52:48.864Z,2.40
2023-04-05T06:58:13.841Z,2.53
2023-04-05T07:03:41.832Z,2.42
2023-04-05T07:09:06.859Z,2.25
2023-04-05T07:14:30.849Z,2.00
2023-04-05T07:20:04.906Z,2.30
2023-04-05T07:25:29.883Z,2.08
2023-04-05T07:30:53.882Z,2.10
2023-04-05T07:36:21.923Z,2.13
2023-04-05T07:41:45.882Z,2.00
2023-04-05T07:47:10.938Z,2.10
2023-04-05T07:52:38.086Z,2.25
2023-04-05T07:58:02.884Z,2.30
2023-04-05T08:03:27.913Z,2.13
2023-04-05T08:08:55.856Z,2.40
2023-04-05T08:14:19.937Z,2.22
2023-04-05T08:19:51.905Z,2.10
2023-04-05T08:25:19.903Z,2.22
2023-04-05T08:30:45.910Z,2.30
2023-04-05T08:36:14.859Z,2.28
2023-04-05T08:41:49.866Z,1.75
2023-04-05T08:47:14.880Z,1.90
2023-04-05T08:52:39.959Z,1.90
2023-04-05T08:58:11.968Z,1.95
2023-04-05T09:03:39.301Z,1.80
2023-04-05T09:09:05.918Z,1.85
2023-04-05T09:14:32.892Z,1.80
2023-04-05T09:20:03.892Z,1.80
2023-04-05T09:25:45.884Z,1.07
2023-04-05T09:31:12.962Z,1.70
2023-04-05T09:36:39.944Z,1.40
2023-04-05T09:42:21.912Z,1.52
2023-04-05T09:47:50.248Z,1.10
2023-04-05T09:53:25.941Z,1.20
2023-04-05T09:58:50.959Z,1.20
2023-04-05T10:04:17.898Z,1.05
2023-04-05T10:09:42.952Z,1.27
2023-04-05T10:15:06.920Z,1.20
2023-04-05T10:20:44.056Z,1.27
2023-04-05T10:26:17.907Z,1.30
2023-04-05T10:31:51.945Z,1.20
2023-04-05T10:37:26.985Z,1.13
2023-04-05T10:42:59.055Z,1.23
2023-04-05T10:48:31.945Z,1.10
2023-04-05T10:54:00.996Z,1.02
2023-04-05T10:59:26.931Z,1.38
2023-04-05T11:04:53.046Z,1.17
2023-04-05T11:10:26.954Z,1.20
2023-04-05T11:15:52.941Z,1.35
2023-04-05T11:21:18.948Z,1.40
2023-04-05T11:27:07.952Z,1.30
2023-04-05T11:32:33.991Z,1.20
2023-04-05T11:38:23.934Z,1.20
2023-04-05T11:43:52.055Z,1.10
2023-04-05T11:49:17.984Z,1.08
2023-04-05T11:54:43.955Z,1.23
2023-04-05T12:00:11.033Z,1.10
2023-04-05T12:05:36.003Z,1.20
2023-04-05T12:11:00.980Z,1.10
2023-04-05T12:16:29.128Z,1.05
2023-04-05T12:21:52.991Z,1.40
2023-04-05T12:27:19.131Z,1.08
2023-04-05T12:32:52.065Z,0.90
2023-04-05T12:38:16.975Z,1.05
2023-04-05T12:43:41.030Z,0.90
2023-04-05T12:49:09.993Z,1.00
2023-04-05T12:54:39.007Z,1.10
2023-04-05T13:00:10.018Z,0.93
2023-04-05T13:05:39.354Z,1.00
2023-04-05T13:11:05.056Z,1.08
2023-04-05T13:16:30.217Z,0.95
2023-04-05T13:21:58.010Z,0.90
2023-04-05T13:27:22.999Z,1.10
2023-04-05T13:32:48.104Z,1.00
2023-04-05T13:38:16.074Z,1.10
2023-04-05T13:43:40.046Z,0.90
2023-04-05T13:49:05.047Z,1.02
2023-04-05T13:54:32.051Z,1.00
2023-04-05T13:59:57.158Z,1.10
2023-04-05T14:05:29.031Z,1.02
2023-04-05T14:10:57.031Z,1.00
2023-04-05T14:16:35.989Z,1.00
2023-04-05T14:22:02.158Z,1.00
2023-04-05T14:27:29.041Z,1.00
2023-04-05T14:32:56.974Z,1.20
2023-04-05T14:38:23.282Z,1.00
2023-04-05T14:43:48.931Z,0.90
2023-04-05T14:49:16.946Z,1.00
2023-04-05T14:54:42.012Z,1.00
2023-04-05T15:00:07.996Z,1.00
2023-04-05T15:05:35.939Z,0.88
2023-04-05T15:11:02.034Z,0.77
2023-04-05T15:16:33.987Z,0.80
2023-04-05T15:22:01.978Z,1.00
2023-04-05T15:27:20.941Z,0.73
2023-04-05T15:32:46.002Z,0.80
2023-04-05T15:38:13.961Z,0.90
2023-04-05T15:43:37.985Z,0.90
2023-04-05T15:49:03.221Z,0.95
2023-04-05T15:54:30.969Z,1.00
2023-04-05T15:59:56.992Z,0.90
2023-04-05T16:05:23.004Z,0.88
2023-04-05T16:10:51.972Z,1.00
2023-04-05T16:16:30.076Z,0.90
2023-04-05T16:22:01.979Z,0.90
2023-04-05T16:27:29.999Z,1.00
2023-04-05T16:32:55.261Z,1.00
2023-04-05T16:38:20.014Z,1.10
2023-04-05T16:43:47.996Z,1.10
2023-04-05T16:49:13.997Z,1.00
2023-04-05T16:54:39.006Z,0.98
2023-04-05T17:00:06.169Z,0.70
2023-04-05T17:05:31.016Z,1.00
2023-04-05T17:10:55.024Z,1.10
2023-04-05T17:16:29.127Z,1.00
2023-04-05T17:21:56.263Z,1.08
2023-04-05T17:27:21.018Z,1.10
2023-04-05T17:32:49.113Z,1.00
2023-04-05T17:38:15.075Z,1.00
2023-04-05T17:43:40.032Z,1.00
2023-04-05T17:49:08.379Z,1.10
2023-04-05T17:54:33.028Z,1.08
2023-04-05T17:59:59.342Z,1.17
2023-04-05T18:05:27.041Z,1.27
2023-04-05T18:10:52.046Z,1.20
2023-04-05T18:16:23.106Z,1.20
2023-04-05T18:21:51.028Z,1.00
2023-04-05T18:27:16.052Z,1.30
2023-04-05T18:32:41.103Z,1.40
2023-04-05T18:38:08.050Z,1.50
2023-04-05T18:43:33.048Z,1.50
2023-04-05T18:49:01.093Z,1.45
2023-04-05T18:54:29.250Z,1.45
2023-04-05T18:59:53.069Z,1.30
2023-04-05T19:05:20.185Z,1.48
2023-04-05T19:10:49.066Z,1.63
2023-04-05T19:16:24.185Z,2.10
2023-04-05T19:21:50.183Z,1.90
2023-04-05T19:27:18.078Z,1.90
2023-04-05T19:32:43.098Z,1.95
2023-04-05T19:38:09.064Z,1.60
2023-04-05T19:43:53.132Z,1.70
2023-04-05T19:49:33.123Z,1.83
2023-04-05T19:55:01.221Z,1.90
2023-04-05T20:00:43.312Z,1.80
2023-04-05T20:06:21.083Z,1.73
2023-04-05T20:11:49.099Z,1.77
2023-04-05T20:17:44.178Z,2.00
2023-04-05T20:23:09.124Z,1.75
2023-04-05T20:29:00.141Z,1.77
2023-04-05T20:34:31.151Z,1.70
2023-04-05T20:39:57.123Z,1.50
2023-04-05T20:45:51.170Z,1.70
2023-04-05T20:51:18.124Z,1.70
2023-04-05T20:56:43.205Z,1.50
2023-04-05T21:02:10.164Z,1.70
2023-04-05T21:07:36.135Z,1.50
2023-04-05T21:13:01.220Z,1.50
2023-04-05T21:18:29.145Z,1.88
2023-04-05T21:23:54.150Z,1.65
2023-04-05T21:29:21.136Z,1.70
2023-04-05T21:34:50.925Z,1.75
2023-04-05T21:40:18.133Z,1.60
2023-04-05T21:45:44.146Z,1.83
2023-04-05T21:51:12.146Z,1.60
2023-04-05T21:56:36.165Z,1.50
2023-04-05T22:02:01.171Z,1.75
2023-04-05T22:07:28.213Z,1.80
2023-04-05T22:12:53.138Z,1.65
2023-04-05T22:18:18.173Z,1.60
2023-04-05T22:23:46.165Z,1.60
2023-04-05T22:29:11.193Z,1.50
2023-04-05T22:34:36.161Z,1.60
2023-04-05T22:40:03.195Z,1.80
2023-04-05T22:45:28.269Z,1.73
2023-04-05T22:50:53.162Z,1.63
2023-04-05T23:02:15.157Z,1.90
2023-04-05T23:07:55.153Z,2.00
2023-04-05T23:13:20.160Z,1.83
2023-04-05T23:18:45.152Z,2.00
2023-04-05T23:24:17.162Z,2.10
2023-04-05T23:29:41.217Z,1.80
2023-04-05T23:35:06.199Z,1.83
2023-04-05T23:40:33.162Z,2.08
2023-04-05T23:45:58.206Z,1.90
2023-04-05T23:51:23.185Z,1.88
2023-04-05T23:56:51.178Z,2.00
